KHRL/HRL METAR and TAF weather

Enter ICAO airport designator
Station Type Date Time Source
KHRL METAR 2020/04/05 18:52 UTC NOAA

KHRL 051852Z 36009KT 6SM BR OVC005 19/18 A2998 RMK AO2 SLP153 T01890178 $


Station Type Date Time Source
KHRL Decoded METAR 2020/04/05 18:52 UTC NOAA

RIO GRANDE VALLEY, TX, United States (KHRL) 26-13N 97-39W 10M
Apr 05, 2020 - 02:52 PM EDT / 2020.04.05 1852 UTC
Wind: from the N (360 degrees) at 10 MPH (9 KT):0
Visibility: 6 mile(s):0
Sky conditions: overcast
Weather: mist
Temperature: 66.0 F (18.9 C)
Dew Point: 64.0 F (17.8 C)
Relative Humidity: 93%
Pressure (altimeter): 29.98 in. Hg (1015 hPa)
ob: KHRL 051852Z 36009KT 6SM BR OVC005 19/18 A2998 RMK AO2 SLP153 T01890178
cycle: 19

Station Type Date Time Source
KHRL TAF 2020/04/05 18:57 UTC NOAA

TAF KHRL 051748Z 0518/0618 35010KT 6SM -DZ BR OVC008
FM060600 05004KT 4SM -DZ BR OVC007
FM061400 11007KT P6SM BKN015

Example: see airport list